Rechercher aéroport 
image banner adimage banner adimage banner ad
image banner ad

86CN - Mercy Medical Center Merced

Situé à Merced, United States

ICAO - 86CN, IATA -

Données fournies par Airmate  

Information générale

Coordonnées: N37°20'27" W120°28'0"
Élévation : 194 feet MSL.
 
Voir autres Aéroports à California

Données opérationnelles

Special qualification required
Heure actuelle UTC:
Heure actuelle locale:
Météo à : KMCE - Merced Rgnl/Macready Field ( 7 km )
METAR: KMCE 300153Z AUTO 31009KT 10SM CLR 37/17 A2977 RMK AO2 SLP079 T03670167
TAF: KMCE 292320Z 3000/3024 32008KT P6SM FEW120 SCT250
Voir NOTAMs / SUP AIP / TFR affectant cet aéroport [VIEW]
Fréquences de communication: [VIEW]

Pistes:

Coordonnées de l'aéroport

Adresse: Merced United States

Vue satellite de 86CN